createdAt,value
2016-05-31T00:00:47.783Z,71.38
2016-05-31T00:01:47.833Z,71.28
2016-05-31T00:02:47.883Z,71.19
2016-05-31T00:03:47.791Z,71.09
2016-05-31T00:04:47.982Z,71.19
2016-05-31T00:05:48.047Z,70.9
2016-05-31T00:06:48.096Z,70.9
2016-05-31T00:07:48.130Z,70.8
2016-05-31T00:08:48.211Z,70.8
2016-05-31T00:09:48.261Z,70.64
2016-05-31T00:10:48.310Z,70.8
2016-05-31T00:11:48.360Z,70.94
2016-05-31T00:12:48.409Z,71.38
2016-05-31T00:13:48.459Z,71.48
2016-05-31T00:14:48.540Z,71.22
2016-05-31T00:15:48.574Z,71.38
2016-05-31T00:16:48.467Z,71.28
2016-05-31T00:17:48.531Z,71.38
2016-05-31T00:18:48.738Z,71.28
2016-05-31T00:19:48.788Z,71.19
2016-05-31T00:20:48.837Z,71.19
2016-05-31T00:21:48.917Z,71.28
2016-05-31T00:22:49.248Z,71.38
2016-05-31T00:23:48.844Z,71.32
2016-05-31T00:24:49.036Z,71.19
2016-05-31T00:25:49.116Z,71.19
2016-05-31T00:26:49.025Z,71.48
2016-05-31T00:27:49.043Z,71.28
2016-05-31T00:28:49.281Z,71.19
2016-05-31T00:29:49.314Z,70.64
2016-05-31T00:30:49.380Z,71.38
2016-05-31T00:31:49.444Z,71.09
2016-05-31T00:32:49.494Z,71.09
2016-05-31T00:33:49.372Z,71.09
2016-05-31T00:34:49.594Z,71.09
2016-05-31T00:35:49.658Z,71.38
2016-05-31T00:36:49.693Z,70.94
2016-05-31T00:37:50.163Z,70.7
2016-05-31T00:38:49.792Z,70.45
2016-05-31T00:39:49.857Z,71.48
2016-05-31T00:40:49.921Z,70.61
2016-05-31T00:41:49.956Z,70.7
2016-05-31T00:42:50.005Z,70.54
2016-05-31T00:43:50.071Z,70.9
2016-05-31T00:44:49.964Z,71.48
2016-05-31T00:45:50.154Z,71.38
2016-05-31T00:46:50.235Z,71.22
2016-05-31T00:47:50.285Z,71.28
2016-05-31T00:48:50.319Z,71.09
2016-05-31T00:49:50.399Z,71.48
2016-05-31T00:50:50.433Z,70.64
2016-05-31T00:51:50.499Z,71.51
2016-05-31T00:52:50.532Z,71.19
2016-05-31T00:53:50.582Z,71.09
2016-05-31T00:54:50.662Z,71.19
2016-05-31T00:55:50.712Z,71.61
2016-05-31T00:56:50.762Z,71.38
2016-05-31T00:57:50.670Z,71.22
2016-05-31T00:58:50.923Z,71.28
2016-05-31T00:59:50.911Z,71.38
2016-05-31T01:00:50.991Z,71.38
2016-05-31T01:01:51.041Z,71.22
2016-05-31T01:02:51.091Z,71.38
2016-05-31T01:03:51.109Z,71.38
2016-05-31T01:04:51.174Z,71.28
2016-05-31T01:05:51.239Z,71.28
2016-05-31T01:06:51.289Z,71.22
2016-05-31T01:07:51.354Z,71.42
2016-05-31T01:08:51.404Z,71.38
2016-05-31T01:09:51.469Z,70.7
2016-05-31T01:10:51.502Z,71.22
2016-05-31T01:11:51.568Z,70.61
2016-05-31T01:12:51.633Z,70.54
2016-05-31T01:13:51.667Z,70.7
2016-05-31T01:14:51.716Z,71.12
2016-05-31T01:15:51.782Z,71.42
2016-05-31T01:16:51.815Z,71.12
2016-05-31T01:17:51.865Z,71.12
2016-05-31T01:18:51.946Z,71.38
2016-05-31T01:19:51.979Z,71.32
2016-05-31T01:20:51.889Z,71.28
2016-05-31T01:21:52.110Z,71.28
2016-05-31T01:22:52.175Z,71.19
2016-05-31T01:23:52.273Z,71.22
2016-05-31T01:24:52.275Z,71.32
2016-05-31T01:25:52.528Z,71.32
2016-05-31T01:26:52.358Z,71.28
2016-05-31T01:27:52.267Z,71.19
2016-05-31T01:28:52.458Z,71.09
2016-05-31T01:29:52.539Z,71.32
2016-05-31T01:30:52.572Z,71.42
2016-05-31T01:31:52.622Z,71.42
2016-05-31T01:32:52.686Z,71.19
2016-05-31T01:33:52.737Z,71.42
2016-05-31T01:34:52.786Z,71.22
2016-05-31T01:35:52.710Z,71.19
2016-05-31T01:36:52.901Z,71.38
2016-05-31T01:37:53.310Z,71.22
2016-05-31T01:38:53.000Z,71.61
2016-05-31T01:39:53.065Z,71.38
2016-05-31T01:40:53.099Z,71.38
2016-05-31T01:41:53.163Z,71.19
2016-05-31T01:42:53.213Z,71.42
2016-05-31T01:43:53.279Z,71.32
2016-05-31T01:44:53.329Z,71.42
2016-05-31T01:45:53.378Z,71.19
2016-05-31T01:46:53.443Z,71.42
2016-05-31T01:47:53.493Z,71.28
2016-05-31T01:48:53.527Z,71.28
2016-05-31T01:49:53.592Z,71.28
2016-05-31T01:50:53.657Z,70.7
2016-05-31T01:51:53.676Z,71.38
2016-05-31T01:52:53.959Z,70.9
2016-05-31T01:53:53.806Z,71.61
2016-05-31T01:54:53.871Z,71.38
2016-05-31T01:55:53.921Z,71.48
2016-05-31T01:56:53.798Z,71.32
2016-05-31T01:57:54.004Z,71.09
2016-05-31T01:58:54.131Z,71.19
2016-05-31T01:59:54.134Z,71.09
2016-05-31T02:00:54.169Z,71.28
2016-05-31T02:01:54.250Z,71.38
2016-05-31T02:02:54.299Z,71.42
2016-05-31T02:03:54.333Z,71.51
2016-05-31T02:04:54.413Z,71.22
2016-05-31T02:05:54.464Z,71.09
2016-05-31T02:06:54.481Z,70.51
2016-05-31T02:07:54.858Z,71.51
2016-05-31T02:08:54.596Z,71.42
2016-05-31T02:09:54.661Z,71.61
2016-05-31T02:10:54.711Z,71.38
2016-05-31T02:11:54.761Z,71.58
2016-05-31T02:12:54.810Z,71.38
2016-05-31T02:13:54.875Z,71.58
2016-05-31T02:14:54.925Z,71.7
2016-05-31T02:15:54.974Z,71.09
2016-05-31T02:16:55.024Z,71.42
2016-05-31T02:17:55.105Z,71.51
2016-05-31T02:18:55.155Z,71.48
2016-05-31T02:19:55.204Z,71.48
2016-05-31T02:20:55.238Z,71.61
2016-05-31T02:21:55.303Z,71.58
2016-05-31T02:22:55.212Z,71.22
2016-05-31T02:23:55.231Z,71.77
2016-05-31T02:24:55.468Z,71.61
2016-05-31T02:25:55.377Z,71.22
2016-05-31T02:26:55.567Z,71.67
2016-05-31T02:27:55.617Z,71.32
2016-05-31T02:28:55.698Z,71.42
2016-05-31T02:29:55.731Z,71.22
2016-05-31T02:30:55.625Z,71.19
2016-05-31T02:31:55.845Z,71.58
2016-05-31T02:32:55.895Z,71.61
2016-05-31T02:33:55.929Z,71.22
2016-05-31T02:34:55.979Z,71.38
2016-05-31T02:35:56.044Z,71.58
2016-05-31T02:36:56.109Z,71.77
2016-05-31T02:37:56.002Z,71.58
2016-05-31T02:38:56.036Z,71.28
2016-05-31T02:39:56.117Z,71.32
2016-05-31T02:40:56.322Z,71.38
2016-05-31T02:41:56.357Z,71.09
2016-05-31T02:42:56.422Z,71.42
2016-05-31T02:43:56.472Z,71.32
2016-05-31T02:44:56.521Z,71.19
2016-05-31T02:45:56.430Z,71.22
2016-05-31T02:46:56.635Z,71.38
2016-05-31T02:47:56.701Z,71.32
2016-05-31T02:48:56.751Z,71.19
2016-05-31T02:49:56.801Z,71.32
2016-05-31T02:50:56.850Z,71.61
2016-05-31T02:51:56.915Z,71.03
2016-05-31T02:52:57.355Z,71.19
2016-05-31T02:53:56.998Z,71.42
2016-05-31T02:54:57.079Z,71.19
2016-05-31T02:55:57.129Z,71.51
2016-05-31T02:56:57.179Z,71.61
2016-05-31T02:57:57.243Z,71.12
2016-05-31T02:58:57.325Z,71.09
2016-05-31T02:59:57.327Z,71.19
2016-05-31T03:00:57.393Z,71.42
2016-05-31T03:01:57.442Z,71.51
2016-05-31T03:02:57.492Z,71.19
2016-05-31T03:03:57.556Z,71.67
2016-05-31T03:04:57.606Z,71.19
2016-05-31T03:05:57.656Z,71.42
2016-05-31T03:06:57.705Z,71.51
2016-05-31T03:07:57.787Z,71.67
2016-05-31T03:08:57.805Z,71.61
2016-05-31T03:09:57.870Z,71.42
2016-05-31T03:10:57.778Z,71.22
2016-05-31T03:11:57.984Z,71.42
2016-05-31T03:12:58.034Z,71.19
2016-05-31T03:13:58.068Z,71.51
2016-05-31T03:14:58.133Z,71.42
2016-05-31T03:15:58.199Z,71.42
2016-05-31T03:16:58.232Z,71.19
2016-05-31T03:17:58.282Z,71.22
2016-05-31T03:18:58.363Z,71.58
2016-05-31T03:19:58.396Z,71.38
2016-05-31T03:20:58.446Z,71.42
2016-05-31T03:21:58.527Z,71.19
2016-05-31T03:22:58.577Z,71.22
2016-05-31T03:23:58.626Z,71.19
2016-05-31T03:24:58.504Z,71.22
2016-05-31T03:25:58.710Z,71.19
2016-05-31T03:26:58.790Z,71.03
2016-05-31T03:27:58.839Z,71.19
2016-05-31T03:28:58.874Z,71.48
2016-05-31T03:29:58.939Z,71.38
2016-05-31T03:30:58.989Z,71.22
2016-05-31T03:31:59.039Z,71.38
2016-05-31T03:32:59.103Z,71.19
2016-05-31T03:33:59.169Z,71.58
2016-05-31T03:34:59.203Z,71.9
2016-05-31T03:35:59.253Z,71.32
2016-05-31T03:36:59.302Z,71.67
2016-05-31T03:37:59.211Z,71.7
2016-05-31T03:38:59.261Z,71.19
2016-05-31T03:39:59.466Z,71.67
2016-05-31T03:40:59.531Z,71.09
2016-05-31T03:41:59.580Z,71.19
2016-05-31T03:42:59.630Z,71.19
2016-05-31T03:43:59.680Z,71.28
2016-05-31T03:44:59.744Z,71.32
2016-05-31T03:45:59.795Z,71.03
2016-05-31T03:46:59.844Z,71.32
2016-05-31T03:47:59.752Z,71.28
2016-05-31T03:48:59.944Z,71.19
2016-05-31T03:49:59.852Z,71.28
2016-05-31T03:51:00.042Z,71.12
2016-05-31T03:52:00.108Z,71.42
2016-05-31T03:53:00.173Z,70.7
2016-05-31T03:54:00.207Z,70.8
2016-05-31T03:55:00.272Z,71.12
2016-05-31T03:56:00.321Z,70.8
2016-05-31T03:57:00.371Z,70.94
2016-05-31T03:58:00.421Z,70.64
2016-05-31T03:59:00.548Z,70.7
2016-05-31T04:00:00.535Z,70.51
2016-05-31T04:01:00.584Z,70.84
2016-05-31T04:02:00.651Z,70.84
2016-05-31T04:03:00.700Z,70.42
2016-05-31T04:04:00.749Z,70.61
2016-05-31T04:05:00.799Z,70.94
2016-05-31T04:06:00.848Z,70.8
2016-05-31T04:07:00.913Z,71.12
2016-05-31T04:08:00.963Z,71.19
2016-05-31T04:09:00.998Z,71.38
2016-05-31T04:10:01.062Z,71.42
2016-05-31T04:11:01.111Z,71.38
2016-05-31T04:12:01.178Z,71.42
2016-05-31T04:13:01.242Z,70.84
2016-05-31T04:14:01.276Z,71.38
2016-05-31T04:15:01.169Z,70.8
2016-05-31T04:16:01.375Z,71.19
2016-05-31T04:17:01.269Z,70.8
2016-05-31T04:18:01.490Z,71.38
2016-05-31T04:19:01.540Z,70.61
2016-05-31T04:20:01.589Z,71.09
2016-05-31T04:21:01.654Z,70.8
2016-05-31T04:22:01.719Z,70.7
2016-05-31T04:23:01.769Z,70.84
2016-05-31T04:24:01.819Z,70.84
2016-05-31T04:25:01.868Z,70.74
2016-05-31T04:26:01.762Z,70.8
2016-05-31T04:27:01.983Z,70.32
2016-05-31T04:28:02.017Z,70.94
2016-05-31T04:29:02.081Z,70.61
2016-05-31T04:30:02.147Z,70.74
2016-05-31T04:31:02.198Z,70.51
2016-05-31T04:32:02.231Z,70.7
2016-05-31T04:33:02.295Z,70.9
2016-05-31T04:34:02.346Z,70.7
2016-05-31T04:35:02.395Z,70.51
2016-05-31T04:36:02.303Z,70.51
2016-05-31T04:37:02.510Z,70.51
2016-05-31T04:38:02.762Z,70.94
2016-05-31T04:39:02.625Z,70.8
2016-05-31T04:40:02.674Z,70.26
2016-05-31T04:41:02.709Z,70.51
2016-05-31T04:42:02.773Z,70.22
2016-05-31T04:43:02.838Z,70.45
2016-05-31T04:44:02.872Z,70.32
2016-05-31T04:45:02.938Z,70.54
2016-05-31T04:46:02.988Z,70.16
2016-05-31T04:47:03.052Z,70.42
2016-05-31T04:48:03.102Z,70.64
2016-05-31T04:49:03.167Z,70.74
2016-05-31T04:50:03.201Z,70.54
2016-05-31T04:51:03.266Z,70.22
2016-05-31T04:52:03.316Z,70.36
2016-05-31T04:53:03.366Z,70.06
2016-05-31T04:54:03.430Z,70.13
2016-05-31T04:55:03.308Z,69.93
2016-05-31T04:56:03.529Z,70.45
2016-05-31T04:57:03.579Z,70.03
2016-05-31T04:58:03.629Z,70.16
2016-05-31T04:59:03.553Z,69.87
2016-05-31T05:00:03.744Z,70.06
2016-05-31T05:01:03.793Z,69.55
2016-05-31T05:02:03.826Z,69.68
2016-05-31T05:03:03.893Z,69.87
2016-05-31T05:04:03.957Z,70.45
2016-05-31T05:05:04.007Z,70.16
2016-05-31T05:06:04.056Z,70.36
2016-05-31T05:07:04.091Z,70.54
2016-05-31T05:08:04.031Z,70.51
2016-05-31T05:09:04.049Z,69.97
2016-05-31T05:10:04.255Z,69.58
2016-05-31T05:11:04.319Z,69.68
2016-05-31T05:12:04.370Z,69.68
2016-05-31T05:13:04.419Z,69.58
2016-05-31T05:14:04.500Z,70.06
2016-05-31T05:15:04.566Z,69.58
2016-05-31T05:16:04.583Z,69.68
2016-05-31T05:17:04.633Z,70.54
2016-05-31T05:18:04.698Z,70.94
2016-05-31T05:19:04.764Z,70.64
2016-05-31T05:20:04.797Z,69.58
2016-05-31T05:21:04.863Z,69.87
2016-05-31T05:22:04.912Z,69.49
2016-05-31T05:23:04.821Z,69.49
2016-05-31T05:24:05.011Z,69.78
2016-05-31T05:25:05.076Z,69.74
2016-05-31T05:26:05.126Z,69
2016-05-31T05:27:05.176Z,69.2
2016-05-31T05:28:05.241Z,68.71
2016-05-31T05:29:05.290Z,68.91
2016-05-31T05:30:05.340Z,68.77
2016-05-31T05:31:05.405Z,68.91
2016-05-31T05:32:05.423Z,68.81
2016-05-31T05:33:05.504Z,68.81
2016-05-31T05:34:05.554Z,69
2016-05-31T05:35:05.620Z,68.81
2016-05-31T05:36:05.653Z,68.39
2016-05-31T05:37:05.703Z,68.59
2016-05-31T05:38:05.767Z,67.17
2016-05-31T05:39:05.848Z,64.76
2016-05-31T05:40:05.883Z,67.43
2016-05-31T05:41:05.931Z,66.97
2016-05-31T05:42:05.982Z,66.75
2016-05-31T05:43:06.047Z,65.3
2016-05-31T05:44:06.081Z,65.78
2016-05-31T05:45:06.146Z,66.08
2016-05-31T05:46:06.180Z,65.4
2016-05-31T05:47:06.230Z,65.78
2016-05-31T05:48:06.138Z,65.78
2016-05-31T05:49:06.188Z,65.4
2016-05-31T05:50:06.237Z,65.5
2016-05-31T05:51:06.459Z,65.56
2016-05-31T05:52:06.524Z,65.2
2016-05-31T05:53:06.604Z,65.3
2016-05-31T05:54:06.639Z,64.98
2016-05-31T05:55:06.673Z,65.56
2016-05-31T05:56:06.722Z,65.85
2016-05-31T05:57:06.780Z,65.17
2016-05-31T05:58:06.873Z,64.31
2016-05-31T05:59:06.996Z,64.5
2016-05-31T06:00:07.025Z,64.5
2016-05-31T06:01:07.100Z,64.4
2016-05-31T06:02:07.187Z,64.59
2016-05-31T06:03:07.261Z,64.5
2016-05-31T06:04:07.305Z,64.31
2016-05-31T06:05:07.365Z,64.5
2016-05-31T06:06:07.455Z,64.11
2016-05-31T06:07:07.496Z,63.82
2016-05-31T06:08:07.564Z,63.63
2016-05-31T06:09:07.618Z,64.69
2016-05-31T06:10:07.499Z,64.5
2016-05-31T06:11:07.568Z,64.56
2016-05-31T06:12:07.760Z,64.5
2016-05-31T06:13:07.841Z,64.47
2016-05-31T06:14:07.878Z,64.56
2016-05-31T06:15:07.944Z,64.5
2016-05-31T06:16:08.010Z,64.37
2016-05-31T06:17:08.061Z,64.56
2016-05-31T06:18:08.095Z,64.18
2016-05-31T06:19:08.145Z,64.28
2016-05-31T06:20:08.226Z,64.28
2016-05-31T06:21:08.260Z,64.47
2016-05-31T06:22:08.311Z,64.08
2016-05-31T06:23:08.360Z,64.18
2016-05-31T06:24:08.252Z,64.37
2016-05-31T06:25:08.460Z,64.37
2016-05-31T06:26:08.540Z,64.37
2016-05-31T06:27:08.590Z,64.18
2016-05-31T06:28:08.638Z,64.18
2016-05-31T06:29:08.688Z,64.56
2016-05-31T06:30:08.754Z,64.56
2016-05-31T06:31:08.787Z,64.95
2016-05-31T06:32:08.837Z,64.95
2016-05-31T06:33:08.901Z,65.05
2016-05-31T06:34:08.937Z,64.86
2016-05-31T06:35:08.986Z,64.18
2016-05-31T06:36:09.035Z,64.37
2016-05-31T06:37:09.116Z,64.37
2016-05-31T06:38:09.166Z,64.28
2016-05-31T06:39:09.200Z,64.18
2016-05-31T06:40:09.295Z,64.86
2016-05-31T06:41:09.314Z,64.47
2016-05-31T06:42:09.380Z,63.92
2016-05-31T06:43:09.414Z,64.56
2016-05-31T06:44:09.478Z,64.47
2016-05-31T06:45:09.513Z,64.5
2016-05-31T06:46:09.577Z,64.5
2016-05-31T06:47:09.472Z,64.5
2016-05-31T06:48:09.677Z,64.5
2016-05-31T06:49:09.742Z,64.4
2016-05-31T06:50:09.777Z,64.31
2016-05-31T06:51:09.841Z,64.4
2016-05-31T06:52:09.907Z,64.31
2016-05-31T06:53:09.940Z,64.31
2016-05-31T06:54:09.990Z,64.59
2016-05-31T06:55:10.040Z,64.5
2016-05-31T06:56:10.089Z,64.21
2016-05-31T06:57:10.154Z,64.4
2016-05-31T06:58:10.219Z,64.5
2016-05-31T06:59:10.316Z,64.5
2016-05-31T07:00:10.304Z,64.4
2016-05-31T07:01:10.384Z,64.4
2016-05-31T07:02:10.402Z,64.5
2016-05-31T07:03:10.482Z,64.4
2016-05-31T07:04:10.532Z,64.31
2016-05-31T07:05:10.582Z,64.59
2016-05-31T07:06:10.647Z,64.4
2016-05-31T07:07:10.681Z,64.4
2016-05-31T07:08:10.934Z,64.59
2016-05-31T07:09:10.796Z,64.4
2016-05-31T07:10:10.845Z,64.4
2016-05-31T07:11:10.723Z,64.21
2016-05-31T07:12:10.944Z,64.59
2016-05-31T07:13:11.010Z,64.59
2016-05-31T07:14:11.044Z,64.31
2016-05-31T07:15:11.109Z,64.31
2016-05-31T07:16:11.158Z,63.63
2016-05-31T07:17:11.224Z,64.11
2016-05-31T07:18:11.257Z,64.4
2016-05-31T07:19:11.339Z,64.21
2016-05-31T07:20:11.388Z,63.73
2016-05-31T07:21:11.438Z,64.21
2016-05-31T07:22:11.487Z,64.02
2016-05-31T07:23:11.725Z,64.11
2016-05-31T07:24:11.602Z,63.73
2016-05-31T07:25:11.635Z,63.63
2016-05-31T07:26:11.685Z,64.05
2016-05-31T07:27:11.735Z,63.92
2016-05-31T07:28:11.800Z,64.11
2016-05-31T07:29:11.849Z,63.92
2016-05-31T07:30:11.884Z,64.11
2016-05-31T07:31:11.949Z,64.11
2016-05-31T07:32:11.999Z,64.02
2016-05-31T07:33:12.079Z,63.92
2016-05-31T07:34:12.113Z,63.63
2016-05-31T07:35:12.162Z,64.11
2016-05-31T07:36:12.212Z,64.11
2016-05-31T07:37:12.262Z,64.53
2016-05-31T07:38:12.171Z,64.11
2016-05-31T07:39:12.392Z,64.21
2016-05-31T07:40:12.426Z,64.05
2016-05-31T07:41:12.476Z,64.21
2016-05-31T07:42:12.541Z,63.76
2016-05-31T07:43:12.606Z,64.4
2016-05-31T07:44:12.639Z,64.31
2016-05-31T07:45:12.706Z,63.92
2016-05-31T07:46:12.771Z,63.82
2016-05-31T07:47:12.820Z,63.63
2016-05-31T07:48:12.697Z,62.96
2016-05-31T07:49:12.935Z,62.76
2016-05-31T07:50:12.984Z,62.86
2016-05-31T07:51:13.081Z,62.66
2016-05-31T07:52:12.911Z,61.22
2016-05-31T07:53:13.133Z,61.99
2016-05-31T07:54:13.198Z,61.51
2016-05-31T07:55:13.217Z,61.22
2016-05-31T07:56:13.282Z,61.71
2016-05-31T07:57:13.347Z,61.22
2016-05-31T07:58:13.380Z,61.32
2016-05-31T07:59:13.477Z,61.61
2016-05-31T08:00:13.543Z,61.13
2016-05-31T08:01:13.546Z,61.51
2016-05-31T08:02:13.595Z,61.51
2016-05-31T08:03:13.643Z,61.32
2016-05-31T08:04:13.757Z,61.32
2016-05-31T08:05:13.604Z,61.61
2016-05-31T08:06:13.809Z,61.61
2016-05-31T08:07:13.873Z,60.93
2016-05-31T08:08:13.923Z,61.71
2016-05-31T08:09:13.972Z,61.51
2016-05-31T08:10:14.038Z,61.03
2016-05-31T08:11:14.073Z,61.13
2016-05-31T08:12:14.137Z,61.32
2016-05-31T08:13:14.186Z,61.03
2016-05-31T08:14:14.237Z,60.55
2016-05-31T08:15:14.114Z,60.64
2016-05-31T08:16:14.351Z,59.68
2016-05-31T08:17:14.400Z,59.39
2016-05-31T08:18:14.434Z,59
2016-05-31T08:19:14.483Z,58.62
2016-05-31T08:20:14.393Z,59.1
2016-05-31T08:21:14.614Z,58.62
2016-05-31T08:22:14.664Z,58.91
2016-05-31T08:23:14.713Z,58.81
2016-05-31T08:24:14.779Z,59.1
2016-05-31T08:25:14.813Z,59
2016-05-31T08:26:14.878Z,58.91
2016-05-31T08:27:14.974Z,59.1
2016-05-31T08:28:15.008Z,59.1
2016-05-31T08:29:15.057Z,59.48
2016-05-31T08:30:15.092Z,60.16
2016-05-31T08:31:15.141Z,59.97
2016-05-31T08:32:15.191Z,59.78
2016-05-31T08:33:15.256Z,59.87
2016-05-31T08:34:15.306Z,59.87
2016-05-31T08:35:15.355Z,59.68
2016-05-31T08:36:15.420Z,59.1
2016-05-31T08:37:15.455Z,59.1
2016-05-31T08:38:15.942Z,58.81
2016-05-31T08:39:15.554Z,58.62
2016-05-31T08:40:15.603Z,58.81
2016-05-31T08:41:15.668Z,58.81
2016-05-31T08:42:15.718Z,58.14
2016-05-31T08:43:15.767Z,57.94
2016-05-31T08:44:15.833Z,58.04
2016-05-31T08:45:15.882Z,58.14
2016-05-31T08:46:15.916Z,58.23
2016-05-31T08:47:15.981Z,58.14
2016-05-31T08:48:15.890Z,58.33
2016-05-31T08:49:16.190Z,57.75
2016-05-31T08:50:16.161Z,57.46
2016-05-31T08:51:16.195Z,57.65
2016-05-31T08:52:16.244Z,57.46
2016-05-31T08:53:16.966Z,56.88
2016-05-31T08:54:16.375Z,57.27
2016-05-31T08:55:16.394Z,56.79
2016-05-31T08:56:16.458Z,57.65
2016-05-31T08:57:16.524Z,58.14
2016-05-31T08:58:16.574Z,57.75
2016-05-31T08:59:16.685Z,57.65
2016-05-31T09:00:16.688Z,57.85
2016-05-31T09:01:16.722Z,58.42
2016-05-31T09:02:16.787Z,58.14
2016-05-31T09:03:16.852Z,57.37
2016-05-31T09:04:16.715Z,57.65
2016-05-31T09:05:16.779Z,57.27
2016-05-31T09:06:17.001Z,57.75
2016-05-31T09:07:16.895Z,57.56
2016-05-31T09:08:17.366Z,57.56
2016-05-31T09:09:17.181Z,57.27
2016-05-31T09:10:17.199Z,57.07
2016-05-31T09:11:17.264Z,56.88
2016-05-31T09:12:17.314Z,56.98
2016-05-31T09:13:17.364Z,57.27
2016-05-31T09:14:17.429Z,56.79
2016-05-31T09:15:17.478Z,56.79
2016-05-31T09:16:17.528Z,56.88
2016-05-31T09:17:17.577Z,56.88
2016-05-31T09:18:17.643Z,56.88
2016-05-31T09:19:17.677Z,56.3
2016-05-31T09:20:17.742Z,56.11
2016-05-31T09:21:17.791Z,55.92
2016-05-31T09:22:17.826Z,56.11
2016-05-31T09:23:18.062Z,56.11
2016-05-31T09:24:17.941Z,56.4
2016-05-31T09:25:18.021Z,56.21
2016-05-31T09:26:18.071Z,57.07
2016-05-31T09:27:17.948Z,56.21
2016-05-31T09:28:18.155Z,55.24
2016-05-31T09:29:18.219Z,54.96
2016-05-31T09:30:18.253Z,55.34
2016-05-31T09:31:18.177Z,55.54
2016-05-31T09:32:18.228Z,55.24
2016-05-31T09:33:18.417Z,54.86
2016-05-31T09:34:18.483Z,55.15
2016-05-31T09:35:18.548Z,55.24
2016-05-31T09:36:18.597Z,55.24
2016-05-31T09:37:18.647Z,55.15
2016-05-31T09:38:18.729Z,54.96
2016-05-31T09:39:18.762Z,55.24
2016-05-31T09:40:18.843Z,55.44
2016-05-31T09:41:18.845Z,55.44
2016-05-31T09:42:18.910Z,54.96
2016-05-31T09:43:18.975Z,55.15
2016-05-31T09:44:19.009Z,55.15
2016-05-31T09:45:19.043Z,55.24
2016-05-31T09:46:18.968Z,55.05
2016-05-31T09:47:19.158Z,55.15
2016-05-31T09:48:19.223Z,54.96
2016-05-31T09:49:19.289Z,54.96
2016-05-31T09:50:19.198Z,54.96
2016-05-31T09:51:19.388Z,55.05
2016-05-31T09:52:19.422Z,54.96
2016-05-31T09:53:19.502Z,55.82
2016-05-31T09:54:19.536Z,55.54
2016-05-31T09:55:19.602Z,55.34
2016-05-31T09:56:19.652Z,55.05
2016-05-31T09:57:19.700Z,54.66
2016-05-31T09:58:19.735Z,54.09
2016-05-31T09:59:19.862Z,54.09
2016-05-31T10:00:19.881Z,55.05
2016-05-31T10:01:19.915Z,54.57
2016-05-31T10:02:19.964Z,54.76
2016-05-31T10:03:20.013Z,54.66
2016-05-31T10:04:19.923Z,54.66
2016-05-31T10:05:19.956Z,54.96
2016-05-31T10:06:20.163Z,54.38
2016-05-31T10:07:20.227Z,53.51
2016-05-31T10:08:20.121Z,53.51
2016-05-31T10:09:20.326Z,53.51
2016-05-31T10:10:20.377Z,54.18
2016-05-31T10:11:20.426Z,54.38
2016-05-31T10:12:20.491Z,53.13
2016-05-31T10:13:20.556Z,53.22
2016-05-31T10:14:20.590Z,54.09
2016-05-31T10:15:20.655Z,53.51
2016-05-31T10:16:20.690Z,53.31
2016-05-31T10:17:20.770Z,53.41
2016-05-31T10:18:20.804Z,53.51
2016-05-31T10:19:20.869Z,53.13
2016-05-31T10:20:20.920Z,53.8
2016-05-31T10:21:20.969Z,53.41
2016-05-31T10:22:21.049Z,53.61
2016-05-31T10:23:21.084Z,53.13
2016-05-31T10:24:21.148Z,53.03
2016-05-31T10:25:21.197Z,52.83
2016-05-31T10:26:21.263Z,53.31
2016-05-31T10:27:21.313Z,53.03
2016-05-31T10:28:21.347Z,53.22
2016-05-31T10:29:21.396Z,53.13
2016-05-31T10:30:21.305Z,53.22
2016-05-31T10:31:21.496Z,53.03
2016-05-31T10:32:21.560Z,52.93
2016-05-31T10:33:21.594Z,53.13
2016-05-31T10:34:21.644Z,52.93
2016-05-31T10:35:21.693Z,53.22
2016-05-31T10:36:21.774Z,52.83
2016-05-31T10:37:21.808Z,53.03
2016-05-31T10:38:21.858Z,53.8
2016-05-31T10:39:21.923Z,53.8
2016-05-31T10:40:21.988Z,53.41
2016-05-31T10:41:22.038Z,53.13
2016-05-31T10:42:22.071Z,53.03
2016-05-31T10:43:22.153Z,52.35
2016-05-31T10:44:22.202Z,53.22
2016-05-31T10:45:22.251Z,52.35
2016-05-31T10:46:22.301Z,52.55
2016-05-31T10:47:22.351Z,52.55
2016-05-31T10:48:22.244Z,52.45
2016-05-31T10:49:22.451Z,52.64
2016-05-31T10:50:22.515Z,52.45
2016-05-31T10:51:22.581Z,51.39
2016-05-31T10:52:22.614Z,51.58
2016-05-31T10:53:23.304Z,51.29
2016-05-31T10:54:22.698Z,51.77
2016-05-31T10:55:22.778Z,52.45
2016-05-31T10:56:22.828Z,52.93
2016-05-31T10:57:22.862Z,52.35
2016-05-31T10:58:22.927Z,51.58
2016-05-31T10:59:23.024Z,52.06
2016-05-31T11:00:23.042Z,51.48
2016-05-31T11:01:23.091Z,51.87
2016-05-31T11:02:23.141Z,52.45
2016-05-31T11:03:23.191Z,52.55
2016-05-31T11:04:23.240Z,51.87
2016-05-31T11:05:23.290Z,51.58
2016-05-31T11:06:23.355Z,51.58
2016-05-31T11:07:23.435Z,51.68
2016-05-31T11:08:23.486Z,51.77
2016-05-31T11:09:23.519Z,51.77
2016-05-31T11:10:23.568Z,51.68
2016-05-31T11:11:23.618Z,52.16
2016-05-31T11:12:23.668Z,51.58
2016-05-31T11:13:23.733Z,51.77
2016-05-31T11:14:23.768Z,51.68
2016-05-31T11:15:23.676Z,51.58
2016-05-31T11:16:23.898Z,51
2016-05-31T11:17:23.776Z,50.71
2016-05-31T11:18:23.997Z,50.81
2016-05-31T11:19:24.046Z,51.2
2016-05-31T11:20:24.111Z,51
2016-05-31T11:21:24.145Z,51
2016-05-31T11:22:24.211Z,50.71
2016-05-31T11:23:24.245Z,50.81
2016-05-31T11:24:24.325Z,50.42
2016-05-31T11:25:24.359Z,50.42
2016-05-31T11:26:24.409Z,50.81
2016-05-31T11:27:24.458Z,50.71
2016-05-31T11:28:24.508Z,51
2016-05-31T11:29:24.402Z,50.81
2016-05-31T11:30:24.622Z,50.62
2016-05-31T11:31:24.688Z,50.32
2016-05-31T11:32:24.737Z,50.62
2016-05-31T11:33:24.803Z,50.9
2016-05-31T11:34:24.868Z,50.23
2016-05-31T11:35:24.902Z,50.9
2016-05-31T11:36:24.951Z,51
2016-05-31T11:37:25.001Z,50.81
2016-05-31T11:38:25.471Z,51.39
2016-05-31T11:39:25.084Z,51.68
2016-05-31T11:40:25.166Z,51.39
2016-05-31T11:41:25.043Z,51
2016-05-31T11:42:25.248Z,50.9
2016-05-31T11:43:25.315Z,51.58
2016-05-31T11:44:25.379Z,51.77
2016-05-31T11:45:25.273Z,51.48
2016-05-31T11:46:25.494Z,51.39
2016-05-31T11:47:25.528Z,51.39
2016-05-31T11:48:25.592Z,51.58
2016-05-31T11:49:25.626Z,51.48
2016-05-31T11:50:25.676Z,51.48
2016-05-31T11:51:25.742Z,51
2016-05-31T11:52:25.776Z,50.62
2016-05-31T11:53:25.841Z,51.39
2016-05-31T11:54:25.890Z,51.29
2016-05-31T11:55:25.955Z,51
2016-05-31T11:56:26.020Z,51.2
2016-05-31T11:57:26.055Z,51.39
2016-05-31T11:58:26.120Z,51.2
2016-05-31T11:59:26.232Z,51.39
2016-05-31T12:00:26.203Z,51
2016-05-31T12:01:26.268Z,50.42
2016-05-31T12:02:26.333Z,51
2016-05-31T12:03:26.369Z,50.81
2016-05-31T12:04:26.417Z,51
2016-05-31T12:05:26.483Z,50.71
2016-05-31T12:06:26.532Z,50.42
2016-05-31T12:07:26.581Z,50.23
2016-05-31T12:08:26.663Z,50.42
2016-05-31T12:09:26.681Z,50.23
2016-05-31T12:10:26.762Z,50.32
2016-05-31T12:11:26.640Z,50.32
2016-05-31T12:12:26.860Z,50.23
2016-05-31T12:13:26.910Z,49.46
2016-05-31T12:14:26.804Z,50.62
2016-05-31T12:15:26.993Z,50.23
2016-05-31T12:16:27.074Z,50.32
2016-05-31T12:17:27.124Z,50.04
2016-05-31T12:18:27.158Z,50.9
2016-05-31T12:19:27.223Z,50.52
2016-05-31T12:20:27.117Z,50.32
2016-05-31T12:21:27.323Z,50.81
2016-05-31T12:22:27.388Z,50.42
2016-05-31T12:23:28.297Z,50.42
2016-05-31T12:24:27.486Z,50.32
2016-05-31T12:25:27.552Z,50.9
2016-05-31T12:26:27.586Z,50.71
2016-05-31T12:27:27.636Z,50.81
2016-05-31T12:28:27.700Z,51.2
2016-05-31T12:29:27.750Z,50.81
2016-05-31T12:30:27.628Z,50.62
2016-05-31T12:31:27.708Z,50.71
2016-05-31T12:32:27.758Z,50.62
2016-05-31T12:33:27.948Z,50.32
2016-05-31T12:34:27.888Z,50.52
2016-05-31T12:35:28.063Z,50.71
2016-05-31T12:36:28.128Z,50.23
2016-05-31T12:37:28.428Z,50.23
2016-05-31T12:38:28.227Z,49.65
2016-05-31T12:39:28.277Z,50.52
2016-05-31T12:40:28.326Z,50.23
2016-05-31T12:41:28.376Z,50.52
2016-05-31T12:42:28.441Z,49.75
2016-05-31T12:43:28.382Z,49.46
2016-05-31T12:44:28.524Z,49.55
2016-05-31T12:45:28.606Z,50.04
2016-05-31T12:46:28.498Z,50.32
2016-05-31T12:47:28.720Z,50.32
2016-05-31T12:48:28.755Z,49.94
2016-05-31T12:49:28.820Z,50.23
2016-05-31T12:50:28.870Z,50.42
2016-05-31T12:51:28.918Z,50.23
2016-05-31T12:52:29.359Z,50.42
2016-05-31T12:53:29.033Z,50.9
2016-05-31T12:54:29.083Z,51.1
2016-05-31T12:55:29.133Z,50.9
2016-05-31T12:56:29.198Z,50.54
2016-05-31T12:57:29.278Z,50.42